Time;durP1;ratioP1;P1;durP2;ratioP2;P2;SDS_P1;SDS_P2;PMS_P1;PMS_P2;Temp;Humidity;BMP_temperature;BMP_pressure;BME280_temperature;BME280_humidity;BME280_pressure;Samples;Min_cycle;Max_cycle;Signal;HPM_P1;HPM_P2
2021/07/29 00:03:00;;;;;;;7.25;4.72;;;17.10;99.90;;;;;;6224331;28;20180;-76
2021/07/29 00:06:03;;;;;;;11.93;3.67;;;17.10;99.90;;;;;;6224036;28;20052;-77
2021/07/29 00:09:04;;;;;;;5.38;3.42;;;17.10;99.90;;;;;;6223893;28;20054;-77
2021/07/29 00:12:07;;;;;;;9.10;4.03;;;17.00;99.90;;;;;;6224059;28;20188;-76
2021/07/29 00:15:11;;;;;;;4.55;3.58;;;17.00;99.90;;;;;;6224047;28;20069;-76
2021/07/29 00:21:34;;;;;;;5.78;3.97;;;17.10;99.90;;;;;;6224530;28;20081;-76
2021/07/29 00:24:36;;;;;;;5.05;3.53;;;17.10;99.90;;;;;;6223532;28;20045;-77
2021/07/29 00:27:38;;;;;;;6.63;3.80;;;17.10;99.90;;;;;;6223147;28;20132;-77
2021/07/29 00:30:40;;;;;;;6.55;4.38;;;17.10;99.90;;;;;;6223781;28;20127;-77
2021/07/29 00:33:42;;;;;;;26.95;4.93;;;17.00;99.90;;;;;;6224056;28;20124;-76
2021/07/29 00:36:45;;;;;;;5.07;4.05;;;17.00;99.90;;;;;;6223091;28;20056;-76
2021/07/29 00:39:47;;;;;;;6.85;3.58;;;17.00;99.90;;;;;;6223494;28;20101;-77
2021/07/29 00:42:49;;;;;;;12.38;4.18;;;17.10;99.90;;;;;;6223041;28;20076;-76
2021/07/29 00:45:51;;;;;;;6.43;3.33;;;17.10;99.90;;;;;;6223375;28;20132;-77
2021/07/29 00:48:55;;;;;;;4.55;4.13;;;17.10;99.90;;;;;;6223131;28;20052;-77
2021/07/29 00:51:58;;;;;;;7.07;4.63;;;17.10;99.90;;;;;;6221196;28;20137;-76
2021/07/29 00:55:00;;;;;;;6.60;4.22;;;17.10;99.90;;;;;;6223127;28;20101;-76
2021/07/29 00:58:02;;;;;;;9.23;3.42;;;17.10;99.90;;;;;;6222924;28;20099;-76
2021/07/29 01:01:04;;;;;;;4.88;4.43;;;17.10;99.90;;;;;;6222992;28;20137;-76
2021/07/29 01:04:06;;;;;;;8.68;3.90;;;17.10;99.90;;;;;;6222726;28;20563;-76
2021/07/29 01:07:09;;;;;;;12.13;6.70;;;17.20;99.90;;;;;;6224132;28;20506;-77
2021/07/29 01:10:11;;;;;;;5.32;3.38;;;17.10;99.90;;;;;;6223598;28;20136;-76
2021/07/29 01:13:12;;;;;;;5.35;3.20;;;17.10;99.90;;;;;;6222588;28;20046;-76
2021/07/29 01:16:14;;;;;;;5.60;3.58;;;17.10;99.90;;;;;;6221501;28;20108;-76
2021/07/29 01:19:19;;;;;;;3.85;3.17;;;17.10;99.90;;;;;;6222867;28;20115;-77
2021/07/29 01:22:22;;;;;;;6.18;3.75;;;17.10;99.90;;;;;;6223487;28;20420;-77
2021/07/29 01:25:24;;;;;;;4.20;3.55;;;17.10;99.90;;;;;;6224805;28;20416;-77
2021/07/29 01:28:26;;;;;;;11.40;5.07;;;17.00;99.90;;;;;;6222140;28;20107;-76
2021/07/29 01:31:28;;;;;;;5.03;4.47;;;17.00;99.90;;;;;;6222263;28;20046;-77
2021/07/29 01:34:30;;;;;;;5.05;3.63;;;17.00;99.90;;;;;;6222106;28;20420;-76
2021/07/29 01:37:33;;;;;;;6.00;3.88;;;16.90;99.90;;;;;;6222604;28;20053;-77
2021/07/29 01:40:35;;;;;;;7.28;3.42;;;16.90;99.90;;;;;;6225547;28;20097;-78
2021/07/29 01:43:37;;;;;;;7.93;4.25;;;16.80;99.90;;;;;;6225120;28;20053;-77
2021/07/29 01:46:38;;;;;;;6.20;3.17;;;16.80;99.90;;;;;;6223695;28;20116;-77
2021/07/29 01:49:40;;;;;;;7.95;3.58;;;16.80;99.90;;;;;;6223374;28;20088;-77
2021/07/29 01:52:43;;;;;;;7.28;3.83;;;16.80;99.90;;;;;;6222895;28;20053;-76
2021/07/29 01:55:46;;;;;;;11.00;6.03;;;16.70;99.90;;;;;;6221825;28;20084;-77
2021/07/29 01:58:48;;;;;;;7.43;4.32;;;16.60;99.90;;;;;;6222318;28;20038;-77
2021/07/29 02:01:50;;;;;;;7.38;4.18;;;16.60;99.90;;;;;;6222630;28;20396;-77
2021/07/29 02:04:51;;;;;;;6.43;3.72;;;16.60;99.90;;;;;;6222224;28;20188;-77
2021/07/29 02:07:55;;;;;;;4.47;3.65;;;16.50;99.90;;;;;;6222128;28;20115;-76
2021/07/29 02:10:56;;;;;;;4.53;3.90;;;16.50;99.90;;;;;;6223866;28;20050;-77
2021/07/29 02:13:58;;;;;;;7.28;3.72;;;16.50;99.90;;;;;;6222808;28;20081;-77
2021/07/29 02:17:00;;;;;;;5.55;4.20;;;16.60;99.90;;;;;;6222044;28;20085;-77
2021/07/29 02:20:02;;;;;;;8.65;3.33;;;16.60;99.90;;;;;;6222846;28;20128;-77
2021/07/29 02:23:05;;;;;;;6.72;3.95;;;16.60;99.90;;;;;;6222738;28;20132;-77
2021/07/29 02:26:07;;;;;;;5.22;4.43;;;16.60;99.90;;;;;;6229440;28;20124;-77
2021/07/29 02:29:09;;;;;;;5.28;3.40;;;16.70;99.90;;;;;;6227168;28;20154;-77
2021/07/29 02:32:10;;;;;;;4.05;3.65;;;16.60;99.90;;;;;;6228278;28;20503;-77
2021/07/29 02:35:12;;;;;;;4.90;4.13;;;16.70;99.90;;;;;;6228329;28;20091;-77
2021/07/29 02:38:17;;;;;;;8.05;4.35;;;16.70;99.90;;;;;;6227041;28;20050;-76
2021/07/29 02:41:20;;;;;;;6.93;3.85;;;16.70;99.90;;;;;;6226542;28;20049;-76
2021/07/29 02:44:21;;;;;;;9.18;4.05;;;16.70;99.90;;;;;;6226091;28;20057;-76
2021/07/29 02:47:23;;;;;;;5.72;3.25;;;16.70;99.90;;;;;;6225839;28;20125;-76
2021/07/29 02:50:25;;;;;;;8.07;3.67;;;16.80;99.90;;;;;;6226050;28;20050;-77
2021/07/29 02:53:32;;;;;;;5.22;3.40;;;16.90;99.90;;;;;;6226513;28;20140;-77
2021/07/29 02:56:34;;;;;;;4.90;3.60;;;17.00;99.90;;;;;;6225687;28;20046;-76
2021/07/29 02:59:36;;;;;;;5.80;3.78;;;17.10;99.90;;;;;;6225849;28;20050;-76
2021/07/29 03:02:37;;;;;;;4.00;2.63;;;17.10;99.90;;;;;;6225697;28;20119;-76
2021/07/29 03:05:39;;;;;;;3.75;3.22;;;17.20;99.90;;;;;;6225666;28;20430;-76
2021/07/29 03:08:42;;;;;;;9.57;4.07;;;17.30;99.90;;;;;;6225684;28;20573;-76
2021/07/29 03:11:44;;;;;;;6.13;3.83;;;17.40;99.90;;;;;;6225611;28;20136;-76
2021/07/29 03:14:46;;;;;;;6.57;2.70;;;17.40;99.90;;;;;;6225661;28;20064;-77
2021/07/29 03:17:48;;;;;;;4.80;3.42;;;17.50;99.90;;;;;;6225792;28;20524;-76
2021/07/29 03:20:49;;;;;;;4.85;2.95;;;17.60;99.90;;;;;;6225511;28;20584;-77
2021/07/29 03:23:53;;;;;;;5.35;3.70;;;17.70;99.90;;;;;;6225656;28;20243;-76
2021/07/29 03:26:54;;;;;;;6.95;4.07;;;17.80;99.90;;;;;;6225507;28;20073;-76
2021/07/29 03:29:56;;;;;;;5.00;3.42;;;17.80;99.90;;;;;;6226444;28;20077;-76
2021/07/29 03:33:00;;;;;;;4.22;3.83;;;17.90;99.90;;;;;;6225569;28;20069;-77
2021/07/29 03:36:01;;;;;;;7.05;3.45;;;17.90;99.90;;;;;;6224997;28;20050;-77
2021/07/29 03:39:06;;;;;;;4.07;3.10;;;18.00;99.90;;;;;;6225657;28;20069;-76
2021/07/29 03:42:08;;;;;;;5.57;3.42;;;18.00;99.90;;;;;;6225685;28;20046;-77
2021/07/29 03:45:11;;;;;;;6.45;3.25;;;18.00;99.90;;;;;;6225905;28;20125;-77
2021/07/29 03:48:13;;;;;;;5.97;3.63;;;18.10;99.90;;;;;;6225644;28;20077;-77
2021/07/29 03:51:15;;;;;;;7.22;3.72;;;18.10;99.90;;;;;;6226641;28;20066;-76
2021/07/29 03:54:18;;;;;;;4.53;4.13;;;18.10;99.90;;;;;;6227016;28;20152;-77
2021/07/29 03:57:23;;;;;;;7.50;4.97;;;18.20;99.90;;;;;;6245951;28;20097;-77
2021/07/29 04:00:25;;;;;;;6.60;4.57;;;18.20;99.90;;;;;;6255713;28;20089;-77
2021/07/29 04:03:26;;;;;;;8.07;3.38;;;18.20;99.90;;;;;;6255571;28;20044;-77
2021/07/29 04:06:28;;;;;;;8.10;4.93;;;18.20;99.90;;;;;;6255113;28;20061;-76
2021/07/29 04:09:31;;;;;;;8.32;3.90;;;18.30;99.90;;;;;;6256556;28;20068;-77
2021/07/29 04:12:34;;;;;;;6.25;3.80;;;18.30;99.90;;;;;;6256009;28;20060;-77
2021/07/29 04:15:36;;;;;;;6.75;4.63;;;18.30;99.90;;;;;;6254911;28;20072;-77
2021/07/29 04:18:37;;;;;;;5.22;4.72;;;18.30;99.90;;;;;;6255296;28;20040;-76
2021/07/29 04:21:39;;;;;;;7.18;3.85;;;18.30;99.90;;;;;;6254973;28;20034;-76
2021/07/29 04:24:43;;;;;;;5.35;3.55;;;18.40;99.90;;;;;;6230779;28;20057;-76
2021/07/29 04:27:44;;;;;;;5.82;4.45;;;18.50;99.90;;;;;;6223499;28;20046;-76
2021/07/29 04:30:46;;;;;;;5.18;4.00;;;18.50;99.90;;;;;;6224330;28;20082;-76
2021/07/29 04:33:49;;;;;;;5.78;4.60;;;18.50;99.90;;;;;;6225178;28;20081;-76
2021/07/29 04:36:52;;;;;;;4.43;3.63;;;18.50;99.90;;;;;;6223667;28;20046;-76
2021/07/29 04:39:55;;;;;;;6.22;4.25;;;18.50;99.90;;;;;;6223687;28;20046;-77
2021/07/29 04:42:57;;;;;;;5.07;3.85;;;18.60;99.90;;;;;;6223009;28;20042;-76
2021/07/29 04:46:02;;;;;;;4.93;4.43;;;18.60;99.90;;;;;;6222899;28;20234;-76
2021/07/29 04:49:04;;;;;;;4.90;3.78;;;18.60;99.90;;;;;;6222846;28;20050;-76
2021/07/29 04:52:06;;;;;;;7.25;4.80;;;18.60;99.90;;;;;;6222729;28;20042;-76
2021/07/29 04:55:10;;;;;;;6.38;4.15;;;18.60;99.90;;;;;;6223078;28;20129;-76
2021/07/29 04:58:12;;;;;;;5.45;4.00;;;18.70;99.90;;;;;;6222829;28;20463;-76
2021/07/29 05:01:14;;;;;;;4.97;3.45;;;18.70;99.90;;;;;;6222732;28;20534;-76
2021/07/29 05:04:16;;;;;;;5.00;3.42;;;18.70;99.90;;;;;;6222844;28;20049;-76
2021/07/29 05:07:17;;;;;;;6.18;4.47;;;18.80;99.90;;;;;;6222159;28;20122;-75
2021/07/29 05:10:20;;;;;;;4.80;4.18;;;18.80;99.90;;;;;;6222738;28;20077;-74
2021/07/29 05:13:22;;;;;;;4.82;3.67;;;19.00;99.90;;;;;;6223156;28;20078;-75
2021/07/29 05:16:24;;;;;;;4.72;3.40;;;19.00;99.90;;;;;;6222123;28;20068;-75
2021/07/29 05:19:26;;;;;;;7.57;3.53;;;19.00;99.90;;;;;;6222637;28;20298;-75
2021/07/29 05:22:28;;;;;;;7.07;4.18;;;19.10;99.90;;;;;;6222228;28;20073;-74
2021/07/29 05:25:32;;;;;;;9.30;4.10;;;19.10;99.60;;;;;;6222906;28;20046;-75
2021/07/29 05:28:34;;;;;;;8.82;5.75;;;19.10;99.30;;;;;;6222061;28;20054;-75
2021/07/29 05:31:37;;;;;;;8.18;4.97;;;19.20;99.20;;;;;;6222196;28;20102;-75
2021/07/29 05:34:39;;;;;;;6.68;3.92;;;19.40;99.10;;;;;;6222085;28;20046;-75
2021/07/29 05:37:41;;;;;;;10.88;3.55;;;19.40;98.50;;;;;;6222112;28;20041;-75
2021/07/29 05:40:44;;;;;;;5.93;3.20;;;19.50;98.10;;;;;;6221710;28;20423;-75
2021/07/29 05:43:46;;;;;;;4.95;3.75;;;19.60;97.70;;;;;;6222013;28;20132;-75
2021/07/29 05:46:47;;;;;;;4.85;3.60;;;19.70;97.40;;;;;;6221053;28;20042;-75
2021/07/29 05:49:49;;;;;;;4.28;3.38;;;19.80;97.00;;;;;;6222274;28;20139;-75
2021/07/29 05:52:51;;;;;;;7.55;3.35;;;19.90;96.20;;;;;;6221456;28;20124;-75
2021/07/29 05:55:55;;;;;;;4.85;3.30;;;19.80;96.00;;;;;;6220978;28;20038;-75
2021/07/29 05:58:57;;;;;;;5.25;3.45;;;19.80;95.90;;;;;;6224553;28;20102;-75
2021/07/29 06:01:59;;;;;;;5.82;3.53;;;19.80;95.70;;;;;;6226264;28;20421;-75
2021/07/29 06:05:00;;;;;;;7.22;4.20;;;19.90;95.40;;;;;;6216478;28;20626;-75
2021/07/29 06:08:02;;;;;;;4.43;3.75;;;20.00;94.50;;;;;;6225758;28;20133;-75
2021/07/29 06:11:05;;;;;;;6.15;3.85;;;20.10;93.80;;;;;;6226076;28;20528;-75
2021/07/29 06:14:07;;;;;;;5.63;4.10;;;20.20;93.30;;;;;;6226568;28;20058;-75
2021/07/29 06:17:09;;;;;;;4.78;2.80;;;20.30;92.50;;;;;;6225553;28;20402;-75
2021/07/29 06:20:12;;;;;;;5.85;3.03;;;20.40;91.80;;;;;;6225951;28;20045;-75
2021/07/29 06:23:14;;;;;;;4.85;3.03;;;20.50;91.10;;;;;;6223054;28;20073;-76
2021/07/29 06:26:17;;;;;;;7.85;3.13;;;20.50;90.70;;;;;;6226052;28;20129;-74
2021/07/29 06:29:19;;;;;;;5.45;3.45;;;20.50;90.60;;;;;;6225966;28;20093;-74
2021/07/29 06:32:21;;;;;;;9.75;3.33;;;20.60;90.30;;;;;;6225940;28;20121;-74
2021/07/29 06:35:23;;;;;;;4.43;3.08;;;20.70;90.00;;;;;;6225439;28;20061;-74
2021/07/29 06:38:25;;;;;;;4.28;2.67;;;21.00;89.80;;;;;;6225439;28;20084;-74
2021/07/29 06:41:29;;;;;;;4.00;2.75;;;21.50;86.60;;;;;;6225751;28;20050;-74
2021/07/29 06:44:30;;;;;;;6.47;2.70;;;21.70;83.40;;;;;;6225559;28;20192;-74
2021/07/29 06:47:32;;;;;;;2.45;2.25;;;21.80;82.80;;;;;;6224859;28;20125;-75
2021/07/29 06:50:34;;;;;;;3.40;2.90;;;22.10;80.10;;;;;;6224991;28;20529;-76
2021/07/29 06:53:37;;;;;;;5.53;3.08;;;22.20;79.10;;;;;;6225864;28;20050;-74
2021/07/29 06:56:40;;;;;;;2.50;2.30;;;22.30;77.30;;;;;;6224869;28;20132;-75
2021/07/29 06:59:42;;;;;;;3.00;2.47;;;22.40;74.70;;;;;;6225379;28;20180;-74
2021/07/29 07:02:43;;;;;;;3.33;1.83;;;22.50;74.90;;;;;;6225532;28;20119;-74
2021/07/29 07:05:46;;;;;;;4.82;2.00;;;22.80;72.50;;;;;;6225047;28;20053;-74
2021/07/29 07:08:48;;;;;;;2.70;1.55;;;23.10;70.80;;;;;;6224174;28;20052;-74
2021/07/29 07:11:51;;;;;;;3.72;2.25;;;23.30;67.70;;;;;;6224159;28;20096;-74
2021/07/29 07:14:53;;;;;;;2.88;1.73;;;23.20;66.60;;;;;;6224624;28;20104;-74
2021/07/29 07:17:55;;;;;;;6.35;2.00;;;23.30;65.70;;;;;;6224719;28;20109;-74
2021/07/29 07:21:04;;;;;;;3.10;2.10;;;23.80;65.20;;;;;;6224737;28;20073;-74
2021/07/29 07:24:06;;;;;;;4.22;2.92;;;24.10;63.30;;;;;;6224738;28;20046;-74
2021/07/29 07:27:09;;;;;;;3.08;1.88;;;24.00;61.60;;;;;;6223812;28;20600;-73
2021/07/29 07:30:12;;;;;;;2.63;2.17;;;23.90;62.30;;;;;;6224820;28;20430;-74
2021/07/29 07:33:14;;;;;;;2.95;1.58;;;23.80;62.30;;;;;;6223987;28;20133;-73
2021/07/29 07:36:19;;;;;;;7.60;1.92;;;23.90;62.00;;;;;;6223769;28;20076;-74
2021/07/29 07:39:21;;;;;;;3.13;1.83;;;24.00;61.90;;;;;;6224318;28;20045;-74
2021/07/29 07:42:25;;;;;;;2.03;1.50;;;24.00;62.00;;;;;;6224260;28;20050;-73
2021/07/29 07:45:27;;;;;;;1.98;1.38;;;23.90;60.80;;;;;;6224578;28;20054;-73
2021/07/29 07:48:28;;;;;;;2.35;1.98;;;23.90;60.90;;;;;;6223813;28;20068;-73
2021/07/29 07:51:30;;;;;;;3.95;2.17;;;24.20;60.20;;;;;;6224017;28;20053;-73
2021/07/29 07:54:32;;;;;;;2.60;1.67;;;24.30;59.50;;;;;;6223793;28;20729;-73
2021/07/29 07:57:35;;;;;;;3.83;1.63;;;24.40;59.40;;;;;;6223933;28;20646;-73
2021/07/29 08:00:37;;;;;;;2.85;1.80;;;24.50;59.50;;;;;;6223415;28;20580;-73
2021/07/29 08:03:39;;;;;;;2.90;2.10;;;24.60;58.80;;;;;;6223646;28;20054;-73
2021/07/29 08:06:40;;;;;;;2.25;1.77;;;24.80;58.10;;;;;;6222913;28;20041;-73
2021/07/29 08:09:42;;;;;;;2.15;1.60;;;24.70;57.90;;;;;;6224312;28;20049;-73
2021/07/29 08:12:45;;;;;;;2.45;1.63;;;24.60;58.00;;;;;;6223389;28;20125;-73
2021/07/29 08:15:47;;;;;;;2.50;1.40;;;24.70;56.60;;;;;;6223239;28;20052;-73
2021/07/29 08:18:49;;;;;;;4.30;1.63;;;24.90;57.60;;;;;;6223758;28;20112;-73
2021/07/29 08:21:51;;;;;;;4.85;3.22;;;25.00;58.00;;;;;;6223451;28;20049;-73
2021/07/29 08:24:53;;;;;;;3.45;1.60;;;25.10;56.20;;;;;;6223175;28;20531;-73
2021/07/29 08:27:56;;;;;;;3.60;1.90;;;25.30;56.60;;;;;;6222533;28;20204;-73
2021/07/29 08:30:58;;;;;;;3.17;1.88;;;25.30;55.20;;;;;;6223043;28;20065;-74
2021/07/29 08:34:00;;;;;;;4.55;1.55;;;25.50;55.00;;;;;;6223302;28;20096;-74
2021/07/29 08:37:02;;;;;;;8.50;1.95;;;25.60;55.00;;;;;;6247509;22;20137;-79
2021/07/29 08:40:04;;;;;;;2.08;1.58;;;25.80;54.40;;;;;;6250493;28;20059;-79
2021/07/29 08:43:09;;;;;;;4.00;1.77;;;26.30;53.70;;;;;;6249313;28;20045;-77
2021/07/29 08:46:17;;;;;;;4.35;1.63;;;26.50;52.60;;;;;;6247906;28;20060;-77
2021/07/29 08:49:25;;;;;;;4.72;1.95;;;26.50;53.10;;;;;;6247955;28;20156;-77
2021/07/29 08:52:27;;;;;;;1.67;1.58;;;26.60;52.30;;;;;;6247649;28;20131;-76
2021/07/29 08:55:30;;;;;;;3.78;2.67;;;26.70;51.70;;;;;;6247553;28;20080;-77
2021/07/29 08:58:33;;;;;;;3.65;2.08;;;26.80;52.60;;;;;;6246831;28;20510;-77
2021/07/29 09:01:45;;;;;;;3.15;1.88;;;27.00;51.80;;;;;;6248353;28;20146;-76
2021/07/29 09:05:17;;;;;;;3.72;2.00;;;27.20;50.40;;;;;;6246993;28;20049;-77
2021/07/29 09:08:19;;;;;;;5.32;1.73;;;27.30;50.30;;;;;;6247010;28;20399;-77
2021/07/29 09:11:34;;;;;;;5.97;2.30;;;27.30;49.20;;;;;;6246862;28;20175;-76
2021/07/29 09:14:37;;;;;;;7.60;2.80;;;27.40;49.70;;;;;;6246882;28;20517;-77
2021/07/29 09:17:44;;;;;;;2.90;1.83;;;27.30;49.30;;;;;;6247168;28;20387;-77
2021/07/29 09:20:46;;;;;;;3.83;2.63;;;27.30;48.30;;;;;;6246939;28;20129;-76
2021/07/29 09:24:04;;;;;;;5.18;2.35;;;27.20;48.20;;;;;;6246724;28;20054;-76
2021/07/29 09:27:06;;;;;;;3.90;1.92;;;27.10;48.10;;;;;;6247788;28;20641;-78
2021/07/29 09:30:15;;;;;;;2.15;1.77;;;27.40;48.90;;;;;;6248962;28;20107;-78
2021/07/29 09:33:17;;;;;;;2.70;1.80;;;27.60;48.40;;;;;;6247745;28;20128;-77
2021/07/29 09:36:19;;;;;;;5.88;1.70;;;28.00;48.10;;;;;;6247780;28;20050;-78
2021/07/29 09:39:22;;;;;;;4.03;2.28;;;28.20;46.10;;;;;;6248543;28;20413;-78
2021/07/29 09:42:24;;;;;;;2.60;2.15;;;28.40;46.50;;;;;;6250078;28;20132;-77
2021/07/29 09:45:32;;;;;;;1.92;1.25;;;28.50;45.10;;;;;;6249436;28;20634;-78
2021/07/29 09:48:35;;;;;;;4.75;1.80;;;28.50;44.90;;;;;;6248226;28;20072;-78
2021/07/29 09:51:40;;;;;;;3.60;1.50;;;28.60;45.30;;;;;;6248965;28;20183;-78
2021/07/29 09:54:44;;;;;;;1.98;1.52;;;28.80;45.10;;;;;;6248787;28;20621;-78
2021/07/29 09:57:46;;;;;;;2.92;2.05;;;28.90;44.00;;;;;;6248324;28;20095;-78
2021/07/29 10:00:49;;;;;;;2.97;2.00;;;29.00;44.00;;;;;;6248017;28;20056;-78
2021/07/29 10:03:52;;;;;;;3.30;2.15;;;29.10;44.20;;;;;;6248036;28;20461;-78
2021/07/29 10:06:57;;;;;;;4.40;1.75;;;28.70;43.30;;;;;;6247613;28;20041;-78
2021/07/29 10:10:01;;;;;;;3.10;1.77;;;28.10;44.40;;;;;;6248060;28;20095;-78
2021/07/29 10:13:03;;;;;;;2.47;2.28;;;27.80;45.90;;;;;;6247144;28;20052;-78
2021/07/29 10:16:07;;;;;;;4.60;2.65;;;27.80;45.80;;;;;;6247562;28;20099;-78
2021/07/29 10:19:09;;;;;;;2.70;1.73;;;28.00;45.70;;;;;;6247538;28;20048;-77
2021/07/29 10:22:22;;;;;;;2.55;1.85;;;28.10;45.50;;;;;;6247357;28;20196;-77
2021/07/29 10:25:24;;;;;;;2.75;1.70;;;27.90;45.50;;;;;;6248257;28;20049;-78
2021/07/29 10:28:27;;;;;;;9.15;2.92;;;28.00;46.80;;;;;;6248858;28;20433;-78
2021/07/29 10:31:48;;;;;;;2.50;1.95;;;28.30;46.10;;;;;;6249438;28;20125;-78
2021/07/29 10:34:52;;;;;;;3.83;2.22;;;28.70;45.70;;;;;;6247821;28;20049;-78
2021/07/29 10:37:55;;;;;;;2.50;2.30;;;28.90;44.40;;;;;;6248115;28;20053;-78
2021/07/29 10:41:03;;;;;;;5.00;2.05;;;28.70;44.40;;;;;;6248318;28;20064;-78
2021/07/29 10:44:07;;;;;;;4.10;2.20;;;28.50;44.20;;;;;;6246486;28;20054;-77
2021/07/29 10:47:14;;;;;;;3.80;2.17;;;28.20;44.50;;;;;;6250147;28;20057;-78
2021/07/29 10:50:22;;;;;;;3.47;1.98;;;28.10;44.90;;;;;;6251694;28;20049;-77
2021/07/29 10:53:24;;;;;;;3.25;1.90;;;28.30;44.80;;;;;;6250876;28;20056;-78
2021/07/29 10:56:27;;;;;;;4.75;2.20;;;28.50;45.10;;;;;;6251079;28;20073;-77
2021/07/29 10:59:29;;;;;;;3.92;1.90;;;28.80;44.70;;;;;;6253920;28;20121;-77
2021/07/29 11:02:43;;;;;;;5.22;2.30;;;28.80;44.40;;;;;;6254481;28;20562;-78
2021/07/29 11:05:45;;;;;;;7.55;2.55;;;28.60;43.70;;;;;;6251423;28;20407;-78
2021/07/29 11:08:46;;;;;;;2.63;2.42;;;28.90;44.10;;;;;;6253499;28;20073;-78
2021/07/29 11:11:50;;;;;;;3.30;1.75;;;29.10;43.60;;;;;;6254001;28;20069;-78
2021/07/29 11:14:52;;;;;;;2.67;2.47;;;29.20;43.90;;;;;;6253326;28;20052;-78
2021/07/29 11:17:55;;;;;;;5.15;2.22;;;29.30;44.00;;;;;;6252016;28;20128;-77
2021/07/29 11:20:57;;;;;;;6.43;1.88;;;29.50;43.30;;;;;;6251302;28;20049;-77
2021/07/29 11:23:59;;;;;;;2.30;1.70;;;29.20;42.60;;;;;;6251449;28;20530;-77
2021/07/29 11:27:02;;;;;;;5.35;2.20;;;28.80;42.90;;;;;;6252088;28;20129;-77
2021/07/29 11:30:05;;;;;;;4.20;2.03;;;28.80;44.30;;;;;;6251947;28;20071;-77
2021/07/29 11:33:20;;;;;;;2.17;1.73;;;29.00;43.20;;;;;;6250697;28;20666;-76
2021/07/29 11:36:22;;;;;;;4.25;1.98;;;29.10;43.50;;;;;;6250168;28;20049;-77
2021/07/29 11:39:25;;;;;;;2.53;1.45;;;29.10;43.80;;;;;;6252095;28;20132;-77
2021/07/29 11:42:33;;;;;;;2.25;1.85;;;29.10;43.00;;;;;;6252993;28;20056;-78
2021/07/29 11:45:35;;;;;;;2.95;1.88;;;29.10;43.50;;;;;;6253823;28;20148;-77
2021/07/29 11:48:39;;;;;;;2.10;1.70;;;29.20;43.40;;;;;;6254472;28;20477;-78
2021/07/29 11:51:41;;;;;;;2.38;1.73;;;29.20;42.50;;;;;;6254420;28;20081;-77
2021/07/29 11:54:42;;;;;;;4.30;1.73;;;29.30;43.10;;;;;;6250053;28;20041;-76
2021/07/29 11:57:45;;;;;;;4.25;1.90;;;29.30;42.00;;;;;;6248418;28;20084;-76
2021/07/29 12:00:48;;;;;;;2.53;2.15;;;29.30;42.30;;;;;;6249899;28;20065;-79
2021/07/29 12:03:54;;;;;;;2.55;1.80;;;29.30;42.40;;;;;;6200441;28;20053;-79
2021/07/29 12:06:56;;;;;;;4.45;1.85;;;29.30;42.00;;;;;;6249532;28;20081;-77
2021/07/29 12:09:59;;;;;;;3.30;1.30;;;29.30;42.20;;;;;;6251337;28;20136;-82
2021/07/29 12:13:02;;;;;;;4.03;1.83;;;29.40;43.50;;;;;;6250285;28;20037;-78
2021/07/29 12:16:04;;;;;;;4.40;2.13;;;29.40;42.80;;;;;;6251415;28;20124;-78
2021/07/29 12:19:08;;;;;;;3.50;1.95;;;29.50;42.10;;;;;;6250235;28;20167;-76
2021/07/29 12:22:24;;;;;;;3.92;2.33;;;29.50;42.10;;;;;;6248795;28;20139;-77
2021/07/29 12:25:29;;;;;;;7.70;2.33;;;29.70;42.10;;;;;;6250007;28;20068;-77
2021/07/29 12:28:39;;;;;;;2.50;1.67;;;29.70;41.90;;;;;;6248796;28;20464;-77
2021/07/29 12:31:46;;;;;;;6.20;2.22;;;29.70;41.80;;;;;;6248162;28;20057;-77
2021/07/29 12:34:50;;;;;;;3.45;2.08;;;29.80;41.80;;;;;;6249754;28;20041;-76
2021/07/29 12:37:58;;;;;;;6.07;1.80;;;30.00;42.70;;;;;;6249331;28;20099;-77
2021/07/29 12:41:01;;;;;;;1.65;1.55;;;30.10;41.50;;;;;;6248669;28;20049;-77
2021/07/29 12:44:10;;;;;;;2.15;1.70;;;29.90;41.80;;;;;;6248613;28;20168;-77
2021/07/29 12:47:13;;;;;;;2.45;1.77;;;29.90;42.00;;;;;;6247543;28;20577;-77
2021/07/29 12:50:36;;;;;;;2.55;1.90;;;30.10;41.10;;;;;;6248271;28;20491;-77
2021/07/29 12:53:38;;;;;;;2.00;1.55;;;30.30;41.90;;;;;;6248296;28;20061;-77
2021/07/29 12:56:41;;;;;;;1.92;1.48;;;30.20;40.60;;;;;;6247181;28;20068;-77
2021/07/29 12:59:42;;;;;;;5.50;2.15;;;30.20;41.60;;;;;;6247845;28;20446;-77
2021/07/29 13:02:44;;;;;;;4.07;1.30;;;30.20;41.80;;;;;;6248205;28;20065;-77
2021/07/29 13:05:47;;;;;;;3.88;1.88;;;30.10;41.00;;;;;;6248412;28;20143;-77
2021/07/29 13:08:49;;;;;;;1.85;1.65;;;30.10;40.70;;;;;;6246273;28;20128;-77
2021/07/29 13:11:53;;;;;;;1.67;1.58;;;30.10;41.40;;;;;;6247467;28;20060;-77
2021/07/29 13:14:55;;;;;;;1.60;1.33;;;30.20;40.60;;;;;;6246861;28;20558;-78
2021/07/29 13:17:56;;;;;;;3.17;2.15;;;30.10;40.60;;;;;;6249238;28;20128;-78
2021/07/29 13:21:02;;;;;;;4.10;1.83;;;30.20;40.10;;;;;;6248752;28;20091;-77
2021/07/29 13:24:05;;;;;;;2.25;1.67;;;30.10;40.10;;;;;;6248001;28;20124;-77
2021/07/29 13:27:06;;;;;;;2.38;1.65;;;30.20;41.10;;;;;;6248070;28;20521;-77
2021/07/29 13:30:09;;;;;;;4.45;1.65;;;30.20;40.70;;;;;;6249221;28;20094;-78
2021/07/29 13:33:11;;;;;;;2.78;1.67;;;30.10;40.40;;;;;;6250421;28;20080;-78
2021/07/29 13:36:14;;;;;;;4.07;1.42;;;30.20;40.10;;;;;;6248545;28;20142;-78
2021/07/29 13:39:16;;;;;;;3.08;1.77;;;30.10;40.50;;;;;;6249441;28;20099;-77
2021/07/29 13:42:18;;;;;;;3.30;1.70;;;30.20;40.30;;;;;;6248121;28;20187;-76
2021/07/29 13:45:20;;;;;;;3.33;1.58;;;30.20;40.60;;;;;;6247310;28;20144;-76
2021/07/29 13:48:22;;;;;;;4.80;1.77;;;30.20;39.60;;;;;;6246304;28;20113;-78
2021/07/29 13:51:25;;;;;;;7.65;1.75;;;30.20;40.40;;;;;;6248396;28;20042;-78
2021/07/29 13:54:27;;;;;;;4.00;1.88;;;30.20;41.20;;;;;;6247086;28;20143;-76
2021/07/29 13:57:29;;;;;;;5.00;2.00;;;30.10;41.10;;;;;;6248177;28;20094;-78
2021/07/29 14:00:31;;;;;;;3.83;1.52;;;30.00;41.40;;;;;;6248175;28;20099;-77
2021/07/29 14:03:33;;;;;;;3.33;1.95;;;29.90;41.60;;;;;;6247189;28;20212;-77
2021/07/29 14:06:36;;;;;;;2.28;1.95;;;29.80;42.20;;;;;;6247290;28;20053;-77
2021/07/29 14:09:38;;;;;;;7.32;2.25;;;29.70;42.00;;;;;;6248547;28;20077;-78
2021/07/29 14:12:41;;;;;;;2.13;1.92;;;29.50;42.60;;;;;;6248286;28;20046;-77
2021/07/29 14:15:44;;;;;;;5.22;1.95;;;29.60;42.80;;;;;;6247576;28;20180;-77
2021/07/29 14:18:49;;;;;;;2.63;2.00;;;29.70;41.90;;;;;;6248880;28;20187;-77
2021/07/29 14:25:11;;;;;;;2.30;1.63;;;29.90;42.20;;;;;;6253385;28;20049;-77
2021/07/29 14:28:14;;;;;;;4.07;1.80;;;29.80;41.20;;;;;;6252829;28;20077;-78
2021/07/29 14:31:15;;;;;;;5.40;1.67;;;29.80;41.70;;;;;;6253938;28;20111;-78
2021/07/29 14:34:17;;;;;;;2.75;1.83;;;29.70;41.50;;;;;;6254055;28;20119;-78
2021/07/29 14:37:20;;;;;;;9.32;2.30;;;29.70;41.50;;;;;;6266923;22;20187;-75
2021/07/29 14:40:22;;;;;;;4.75;2.05;;;29.80;41.90;;;;;;6250100;28;20184;-75
2021/07/29 14:43:25;;;;;;;3.83;2.00;;;29.80;41.60;;;;;;6250688;28;20167;-76
2021/07/29 14:49:48;;;;;;;4.85;1.58;;;29.60;41.10;;;;;;6216647;28;20529;-75
2021/07/29 14:52:54;;;;;;;4.93;1.77;;;29.40;41.10;;;;;;6250034;28;20176;-75
2021/07/29 14:56:09;;;;;;;6.93;2.65;;;29.30;41.60;;;;;;6249997;28;20621;-75
2021/07/29 16:09:15;;;;;;;7.30;3.95;;;29.30;41.20;;;;;;6280839;28;20057;-74
2021/07/29 16:12:17;;;;;;;3.15;2.05;;;29.20;41.90;;;;;;6279927;28;20053;-75
2021/07/29 16:15:20;;;;;;;4.50;1.90;;;29.10;41.20;;;;;;6280178;28;20048;-75
2021/07/29 16:18:22;;;;;;;3.30;1.98;;;29.10;42.00;;;;;;6275704;28;20064;-74
2021/07/29 16:21:24;;;;;;;3.35;1.73;;;28.90;41.50;;;;;;6250078;28;20127;-74
2021/07/29 16:24:27;;;;;;;2.38;1.67;;;28.80;41.70;;;;;;6248760;28;20071;-74
2021/07/29 16:27:28;;;;;;;3.47;1.65;;;28.70;41.60;;;;;;6248516;28;20045;-74
2021/07/29 16:30:31;;;;;;;2.88;2.22;;;28.50;42.10;;;;;;6250873;28;20077;-74
2021/07/29 16:33:33;;;;;;;9.73;2.80;;;28.30;41.80;;;;;;6250763;28;20054;-75
2021/07/29 16:36:35;;;;;;;2.63;1.80;;;28.00;42.10;;;;;;6248977;28;20621;-74
2021/07/29 16:39:39;;;;;;;2.15;1.95;;;27.80;42.70;;;;;;6248378;28;20041;-74
2021/07/29 16:42:40;;;;;;;3.58;1.65;;;27.50;43.10;;;;;;6247690;28;20045;-75
2021/07/29 16:45:44;;;;;;;6.00;3.05;;;27.30;43.70;;;;;;6249075;28;20132;-74
2021/07/29 16:48:45;;;;;;;5.53;3.42;;;27.20;44.80;;;;;;6248851;28;20128;-75
2021/07/29 16:51:47;;;;;;;2.35;2.13;;;27.00;45.50;;;;;;6247694;28;20101;-75
2021/07/29 16:54:49;;;;;;;4.10;2.22;;;26.90;45.20;;;;;;6248197;28;20041;-75
2021/07/29 16:57:51;;;;;;;4.15;2.10;;;26.70;45.70;;;;;;6247382;28;20140;-75
2021/07/29 17:00:54;;;;;;;4.65;2.30;;;26.60;46.20;;;;;;6247293;28;20427;-75
2021/07/29 17:03:56;;;;;;;4.65;2.45;;;26.60;45.80;;;;;;6247125;28;20080;-75
2021/07/29 17:06:58;;;;;;;4.40;2.42;;;26.50;46.20;;;;;;6243158;28;20065;-74
2021/07/29 17:10:00;;;;;;;4.93;2.60;;;26.30;45.70;;;;;;6245174;28;20045;-75
2021/07/29 17:13:02;;;;;;;4.40;2.03;;;26.20;45.80;;;;;;6246866;28;20046;-75